sensor_id;sensor_type;location;lat;lon;timestamp;P1;durP1;ratioP1;P2;durP2;ratioP2
75823;SDS011;64457;51.976;9.834;2024-01-27T00:02:09;20.13;;;2.47;;
75823;SDS011;64457;51.976;9.834;2024-01-27T00:04:36;15.60;;;2.10;;
75823;SDS011;64457;51.976;9.834;2024-01-27T00:07:04;11.80;;;2.40;;
75823;SDS011;64457;51.976;9.834;2024-01-27T00:09:34;12.03;;;2.03;;
75823;SDS011;64457;51.976;9.834;2024-01-27T00:12:01;8.50;;;2.43;;
75823;SDS011;64457;51.976;9.834;2024-01-27T00:14:29;9.40;;;2.30;;
75823;SDS011;64457;51.976;9.834;2024-01-27T00:16:56;20.97;;;2.90;;
75823;SDS011;64457;51.976;9.834;2024-01-27T00:19:25;19.40;;;3.13;;
75823;SDS011;64457;51.976;9.834;2024-01-27T00:21:52;14.93;;;2.23;;
75823;SDS011;64457;51.976;9.834;2024-01-27T00:24:19;10.87;;;2.80;;
75823;SDS011;64457;51.976;9.834;2024-01-27T00:26:46;23.10;;;2.70;;
75823;SDS011;64457;51.976;9.834;2024-01-27T00:29:14;13.17;;;1.90;;
75823;SDS011;64457;51.976;9.834;2024-01-27T00:31:41;17.10;;;2.93;;
75823;SDS011;64457;51.976;9.834;2024-01-27T00:34:09;9.53;;;2.17;;
75823;SDS011;64457;51.976;9.834;2024-01-27T00:36:37;15.90;;;2.00;;
75823;SDS011;64457;51.976;9.834;2024-01-27T00:39:05;11.10;;;1.57;;
75823;SDS011;64457;51.976;9.834;2024-01-27T00:41:32;9.57;;;2.10;;
75823;SDS011;64457;51.976;9.834;2024-01-27T00:43:59;16.33;;;2.00;;
75823;SDS011;64457;51.976;9.834;2024-01-27T00:46:26;11.30;;;2.13;;
75823;SDS011;64457;51.976;9.834;2024-01-27T00:48:54;18.33;;;2.43;;
75823;SDS011;64457;51.976;9.834;2024-01-27T00:51:21;19.93;;;3.00;;
75823;SDS011;64457;51.976;9.834;2024-01-27T00:53:49;12.10;;;2.50;;
75823;SDS011;64457;51.976;9.834;2024-01-27T00:56:17;9.83;;;2.03;;
75823;SDS011;64457;51.976;9.834;2024-01-27T00:58:44;10.57;;;2.60;;
75823;SDS011;64457;51.976;9.834;2024-01-27T01:01:12;21.43;;;3.57;;
75823;SDS011;64457;51.976;9.834;2024-01-27T01:03:40;14.03;;;2.97;;
75823;SDS011;64457;51.976;9.834;2024-01-27T01:06:07;14.93;;;2.40;;
75823;SDS011;64457;51.976;9.834;2024-01-27T01:08:35;12.23;;;2.43;;
75823;SDS011;64457;51.976;9.834;2024-01-27T01:11:04;15.37;;;2.37;;
75823;SDS011;64457;51.976;9.834;2024-01-27T01:13:31;14.80;;;2.73;;
75823;SDS011;64457;51.976;9.834;2024-01-27T01:16:00;15.37;;;2.77;;
75823;SDS011;64457;51.976;9.834;2024-01-27T01:18:28;12.23;;;2.80;;
75823;SDS011;64457;51.976;9.834;2024-01-27T01:20:56;19.00;;;3.00;;
75823;SDS011;64457;51.976;9.834;2024-01-27T01:23:23;17.67;;;2.20;;
75823;SDS011;64457;51.976;9.834;2024-01-27T01:25:50;14.80;;;3.20;;
75823;SDS011;64457;51.976;9.834;2024-01-27T01:28:19;7.97;;;2.03;;
75823;SDS011;64457;51.976;9.834;2024-01-27T01:30:47;16.63;;;2.33;;
75823;SDS011;64457;51.976;9.834;2024-01-27T01:33:15;8.93;;;2.83;;
75823;SDS011;64457;51.976;9.834;2024-01-27T01:35:42;19.10;;;3.33;;
75823;SDS011;64457;51.976;9.834;2024-01-27T01:38:10;15.83;;;3.40;;
75823;SDS011;64457;51.976;9.834;2024-01-27T01:40:38;17.33;;;2.40;;
75823;SDS011;64457;51.976;9.834;2024-01-27T01:43:08;13.03;;;3.00;;
75823;SDS011;64457;51.976;9.834;2024-01-27T01:45:39;22.83;;;3.23;;
75823;SDS011;64457;51.976;9.834;2024-01-27T01:48:06;13.33;;;2.60;;
75823;SDS011;64457;51.976;9.834;2024-01-27T01:50:34;15.13;;;3.07;;
75823;SDS011;64457;51.976;9.834;2024-01-27T01:53:02;15.17;;;2.80;;
75823;SDS011;64457;51.976;9.834;2024-01-27T01:55:30;20.67;;;3.20;;
75823;SDS011;64457;51.976;9.834;2024-01-27T01:58:01;15.83;;;3.10;;
75823;SDS011;64457;51.976;9.834;2024-01-27T02:00:28;18.37;;;2.73;;
75823;SDS011;64457;51.976;9.834;2024-01-27T02:02:58;17.80;;;3.07;;
75823;SDS011;64457;51.976;9.834;2024-01-27T02:05:25;16.43;;;2.90;;
75823;SDS011;64457;51.976;9.834;2024-01-27T02:07:52;13.60;;;3.20;;
75823;SDS011;64457;51.976;9.834;2024-01-27T02:10:25;11.87;;;2.70;;
75823;SDS011;64457;51.976;9.834;2024-01-27T02:12:53;24.87;;;3.20;;
75823;SDS011;64457;51.976;9.834;2024-01-27T02:15:20;19.70;;;3.43;;
75823;SDS011;64457;51.976;9.834;2024-01-27T02:17:47;14.97;;;3.17;;
75823;SDS011;64457;51.976;9.834;2024-01-27T02:20:16;27.30;;;4.70;;
75823;SDS011;64457;51.976;9.834;2024-01-27T02:22:44;18.20;;;3.27;;
75823;SDS011;64457;51.976;9.834;2024-01-27T02:25:12;11.30;;;3.23;;
75823;SDS011;64457;51.976;9.834;2024-01-27T02:27:40;19.67;;;3.40;;
75823;SDS011;64457;51.976;9.834;2024-01-27T02:30:08;11.97;;;2.87;;
75823;SDS011;64457;51.976;9.834;2024-01-27T02:32:35;17.37;;;3.03;;
75823;SDS011;64457;51.976;9.834;2024-01-27T02:35:03;14.30;;;3.33;;
75823;SDS011;64457;51.976;9.834;2024-01-27T02:37:32;19.63;;;3.77;;
75823;SDS011;64457;51.976;9.834;2024-01-27T02:40:00;18.77;;;3.57;;
75823;SDS011;64457;51.976;9.834;2024-01-27T02:42:28;28.30;;;4.20;;
75823;SDS011;64457;51.976;9.834;2024-01-27T02:44:56;13.53;;;2.70;;
75823;SDS011;64457;51.976;9.834;2024-01-27T02:47:23;20.27;;;4.50;;
75823;SDS011;64457;51.976;9.834;2024-01-27T02:49:51;13.70;;;3.43;;
75823;SDS011;64457;51.976;9.834;2024-01-27T02:52:18;21.47;;;3.70;;
75823;SDS011;64457;51.976;9.834;2024-01-27T02:54:45;18.27;;;3.67;;
75823;SDS011;64457;51.976;9.834;2024-01-27T02:57:13;14.03;;;3.90;;
75823;SDS011;64457;51.976;9.834;2024-01-27T02:59:45;21.07;;;3.53;;
75823;SDS011;64457;51.976;9.834;2024-01-27T03:02:13;15.10;;;3.60;;
75823;SDS011;64457;51.976;9.834;2024-01-27T03:04:40;29.23;;;4.57;;
75823;SDS011;64457;51.976;9.834;2024-01-27T03:07:08;10.70;;;3.57;;
75823;SDS011;64457;51.976;9.834;2024-01-27T03:09:35;10.63;;;3.20;;
75823;SDS011;64457;51.976;9.834;2024-01-27T03:12:03;17.77;;;3.67;;
75823;SDS011;64457;51.976;9.834;2024-01-27T03:14:31;23.60;;;4.83;;
75823;SDS011;64457;51.976;9.834;2024-01-27T03:16:59;14.90;;;4.23;;
75823;SDS011;64457;51.976;9.834;2024-01-27T03:19:27;17.83;;;3.93;;
75823;SDS011;64457;51.976;9.834;2024-01-27T03:21:54;15.93;;;3.97;;
75823;SDS011;64457;51.976;9.834;2024-01-27T03:24:21;23.20;;;5.07;;
75823;SDS011;64457;51.976;9.834;2024-01-27T03:26:48;20.80;;;4.37;;
75823;SDS011;64457;51.976;9.834;2024-01-27T03:29:16;23.97;;;4.57;;
75823;SDS011;64457;51.976;9.834;2024-01-27T03:31:43;18.23;;;3.73;;
75823;SDS011;64457;51.976;9.834;2024-01-27T03:34:12;27.13;;;4.10;;
75823;SDS011;64457;51.976;9.834;2024-01-27T03:36:40;26.07;;;4.40;;
75823;SDS011;64457;51.976;9.834;2024-01-27T03:39:07;11.20;;;3.20;;
75823;SDS011;64457;51.976;9.834;2024-01-27T03:41:34;18.50;;;3.93;;
75823;SDS011;64457;51.976;9.834;2024-01-27T03:44:02;21.17;;;4.30;;
75823;SDS011;64457;51.976;9.834;2024-01-27T03:46:29;19.67;;;4.73;;
75823;SDS011;64457;51.976;9.834;2024-01-27T03:48:57;20.60;;;4.47;;
75823;SDS011;64457;51.976;9.834;2024-01-27T03:51:25;25.83;;;5.10;;
75823;SDS011;64457;51.976;9.834;2024-01-27T03:53:53;17.63;;;4.57;;
75823;SDS011;64457;51.976;9.834;2024-01-27T03:56:20;16.47;;;5.13;;
75823;SDS011;64457;51.976;9.834;2024-01-27T03:58:47;22.17;;;4.80;;
75823;SDS011;64457;51.976;9.834;2024-01-27T04:01:14;14.10;;;4.37;;
75823;SDS011;64457;51.976;9.834;2024-01-27T04:03:44;14.27;;;4.20;;
75823;SDS011;64457;51.976;9.834;2024-01-27T04:06:11;20.80;;;4.33;;
75823;SDS011;64457;51.976;9.834;2024-01-27T04:08:40;15.93;;;4.03;;
75823;SDS011;64457;51.976;9.834;2024-01-27T04:11:09;22.80;;;4.30;;
75823;SDS011;64457;51.976;9.834;2024-01-27T04:13:45;17.83;;;4.20;;
75823;SDS011;64457;51.976;9.834;2024-01-27T04:16:13;24.70;;;4.50;;
75823;SDS011;64457;51.976;9.834;2024-01-27T04:18:41;17.93;;;4.70;;
75823;SDS011;64457;51.976;9.834;2024-01-27T04:21:09;13.50;;;4.10;;
75823;SDS011;64457;51.976;9.834;2024-01-27T04:23:36;15.80;;;3.50;;
75823;SDS011;64457;51.976;9.834;2024-01-27T04:26:05;19.60;;;4.63;;
75823;SDS011;64457;51.976;9.834;2024-01-27T04:28:34;21.70;;;4.50;;
75823;SDS011;64457;51.976;9.834;2024-01-27T04:31:02;14.33;;;4.43;;
75823;SDS011;64457;51.976;9.834;2024-01-27T04:33:29;21.50;;;5.30;;
75823;SDS011;64457;51.976;9.834;2024-01-27T04:35:57;17.87;;;4.17;;
75823;SDS011;64457;51.976;9.834;2024-01-27T04:38:25;23.50;;;4.23;;
75823;SDS011;64457;51.976;9.834;2024-01-27T04:40:52;15.47;;;4.40;;
75823;SDS011;64457;51.976;9.834;2024-01-27T04:43:22;13.43;;;4.50;;
75823;SDS011;64457;51.976;9.834;2024-01-27T04:45:49;13.17;;;5.10;;
75823;SDS011;64457;51.976;9.834;2024-01-27T04:48:16;14.23;;;4.80;;
75823;SDS011;64457;51.976;9.834;2024-01-27T04:50:44;24.20;;;4.43;;
75823;SDS011;64457;51.976;9.834;2024-01-27T04:53:11;14.67;;;4.80;;
75823;SDS011;64457;51.976;9.834;2024-01-27T04:55:39;19.27;;;4.70;;
75823;SDS011;64457;51.976;9.834;2024-01-27T04:58:06;21.37;;;5.20;;
75823;SDS011;64457;51.976;9.834;2024-01-27T05:00:35;15.47;;;3.80;;
75823;SDS011;64457;51.976;9.834;2024-01-27T05:03:02;15.93;;;4.40;;
75823;SDS011;64457;51.976;9.834;2024-01-27T05:05:32;17.13;;;4.40;;
75823;SDS011;64457;51.976;9.834;2024-01-27T05:08:00;18.13;;;4.87;;
75823;SDS011;64457;51.976;9.834;2024-01-27T05:10:27;13.63;;;4.27;;
75823;SDS011;64457;51.976;9.834;2024-01-27T05:12:54;18.53;;;4.50;;
75823;SDS011;64457;51.976;9.834;2024-01-27T05:15:22;14.53;;;4.57;;
75823;SDS011;64457;51.976;9.834;2024-01-27T05:17:50;19.73;;;4.80;;
75823;SDS011;64457;51.976;9.834;2024-01-27T05:20:18;22.20;;;5.00;;
75823;SDS011;64457;51.976;9.834;2024-01-27T05:22:45;13.00;;;4.53;;
75823;SDS011;64457;51.976;9.834;2024-01-27T05:25:13;16.43;;;4.83;;
75823;SDS011;64457;51.976;9.834;2024-01-27T05:27:42;22.37;;;5.23;;
75823;SDS011;64457;51.976;9.834;2024-01-27T05:30:09;16.87;;;4.90;;
75823;SDS011;64457;51.976;9.834;2024-01-27T05:32:37;12.90;;;4.70;;
75823;SDS011;64457;51.976;9.834;2024-01-27T05:35:06;16.73;;;5.03;;
75823;SDS011;64457;51.976;9.834;2024-01-27T05:37:35;18.13;;;5.40;;
75823;SDS011;64457;51.976;9.834;2024-01-27T05:40:05;11.43;;;4.43;;
75823;SDS011;64457;51.976;9.834;2024-01-27T05:42:33;21.27;;;5.27;;
75823;SDS011;64457;51.976;9.834;2024-01-27T05:45:01;21.03;;;4.53;;
75823;SDS011;64457;51.976;9.834;2024-01-27T05:47:29;25.67;;;4.87;;
75823;SDS011;64457;51.976;9.834;2024-01-27T05:49:56;18.97;;;4.20;;
75823;SDS011;64457;51.976;9.834;2024-01-27T05:52:25;21.03;;;5.67;;
75823;SDS011;64457;51.976;9.834;2024-01-27T05:54:52;18.77;;;4.47;;
75823;SDS011;64457;51.976;9.834;2024-01-27T05:57:20;16.17;;;4.70;;
75823;SDS011;64457;51.976;9.834;2024-01-27T05:59:48;10.80;;;3.30;;
75823;SDS011;64457;51.976;9.834;2024-01-27T06:02:15;16.27;;;4.20;;
75823;SDS011;64457;51.976;9.834;2024-01-27T06:04:52;15.37;;;4.90;;
75823;SDS011;64457;51.976;9.834;2024-01-27T06:07:19;16.73;;;5.30;;
75823;SDS011;64457;51.976;9.834;2024-01-27T06:09:48;11.17;;;5.03;;
75823;SDS011;64457;51.976;9.834;2024-01-27T06:12:15;13.70;;;4.63;;
75823;SDS011;64457;51.976;9.834;2024-01-27T06:14:50;16.67;;;4.73;;
75823;SDS011;64457;51.976;9.834;2024-01-27T06:17:20;11.90;;;4.13;;
75823;SDS011;64457;51.976;9.834;2024-01-27T06:20:01;14.87;;;4.00;;
75823;SDS011;64457;51.976;9.834;2024-01-27T06:22:29;13.07;;;3.90;;
75823;SDS011;64457;51.976;9.834;2024-01-27T06:24:59;19.80;;;3.80;;
75823;SDS011;64457;51.976;9.834;2024-01-27T06:27:26;15.77;;;4.43;;
75823;SDS011;64457;51.976;9.834;2024-01-27T06:29:54;20.63;;;5.93;;
75823;SDS011;64457;51.976;9.834;2024-01-27T06:32:21;13.97;;;4.43;;
75823;SDS011;64457;51.976;9.834;2024-01-27T06:34:49;22.93;;;4.60;;
75823;SDS011;64457;51.976;9.834;2024-01-27T06:37:19;27.70;;;5.83;;
75823;SDS011;64457;51.976;9.834;2024-01-27T06:39:46;21.60;;;6.10;;
75823;SDS011;64457;51.976;9.834;2024-01-27T06:42:15;19.40;;;5.30;;
75823;SDS011;64457;51.976;9.834;2024-01-27T06:44:42;18.10;;;6.53;;
75823;SDS011;64457;51.976;9.834;2024-01-27T06:47:10;25.20;;;5.00;;
75823;SDS011;64457;51.976;9.834;2024-01-27T06:49:37;24.07;;;5.70;;
75823;SDS011;64457;51.976;9.834;2024-01-27T06:52:11;25.70;;;6.60;;
75823;SDS011;64457;51.976;9.834;2024-01-27T06:54:38;17.13;;;6.00;;
75823;SDS011;64457;51.976;9.834;2024-01-27T06:57:18;21.80;;;6.30;;
75823;SDS011;64457;51.976;9.834;2024-01-27T06:59:46;14.60;;;5.33;;
75823;SDS011;64457;51.976;9.834;2024-01-27T07:02:17;13.57;;;6.00;;
75823;SDS011;64457;51.976;9.834;2024-01-27T07:04:46;16.20;;;6.13;;
75823;SDS011;64457;51.976;9.834;2024-01-27T07:07:13;32.33;;;5.70;;
75823;SDS011;64457;51.976;9.834;2024-01-27T07:09:40;19.67;;;5.37;;
75823;SDS011;64457;51.976;9.834;2024-01-27T07:12:08;24.80;;;6.37;;
75823;SDS011;64457;51.976;9.834;2024-01-27T07:14:37;24.23;;;6.37;;
75823;SDS011;64457;51.976;9.834;2024-01-27T07:17:04;21.33;;;6.20;;
75823;SDS011;64457;51.976;9.834;2024-01-27T07:19:31;24.97;;;6.30;;
75823;SDS011;64457;51.976;9.834;2024-01-27T07:21:59;19.10;;;5.73;;
75823;SDS011;64457;51.976;9.834;2024-01-27T07:24:26;18.60;;;7.57;;
75823;SDS011;64457;51.976;9.834;2024-01-27T07:26:53;15.37;;;7.00;;
75823;SDS011;64457;51.976;9.834;2024-01-27T07:29:21;23.07;;;7.60;;
75823;SDS011;64457;51.976;9.834;2024-01-27T07:31:50;22.20;;;7.53;;
75823;SDS011;64457;51.976;9.834;2024-01-27T07:34:19;21.83;;;7.80;;
75823;SDS011;64457;51.976;9.834;2024-01-27T07:36:47;20.60;;;7.77;;
75823;SDS011;64457;51.976;9.834;2024-01-27T07:39:14;23.63;;;9.23;;
75823;SDS011;64457;51.976;9.834;2024-01-27T07:41:42;22.80;;;7.90;;
75823;SDS011;64457;51.976;9.834;2024-01-27T07:44:09;31.40;;;8.73;;
75823;SDS011;64457;51.976;9.834;2024-01-27T07:46:37;24.10;;;9.50;;
75823;SDS011;64457;51.976;9.834;2024-01-27T07:49:06;31.60;;;10.17;;
75823;SDS011;64457;51.976;9.834;2024-01-27T07:51:35;40.20;;;10.93;;
75823;SDS011;64457;51.976;9.834;2024-01-27T07:54:02;24.03;;;9.90;;
75823;SDS011;64457;51.976;9.834;2024-01-27T07:56:29;31.43;;;11.93;;
75823;SDS011;64457;51.976;9.834;2024-01-27T07:58:57;27.07;;;11.80;;
75823;SDS011;64457;51.976;9.834;2024-01-27T08:01:24;35.90;;;12.00;;
75823;SDS011;64457;51.976;9.834;2024-01-27T08:03:52;28.00;;;10.60;;
75823;SDS011;64457;51.976;9.834;2024-01-27T08:06:21;20.67;;;10.50;;
75823;SDS011;64457;51.976;9.834;2024-01-27T08:08:54;32.83;;;12.53;;
75823;SDS011;64457;51.976;9.834;2024-01-27T08:11:21;28.40;;;11.80;;
75823;SDS011;64457;51.976;9.834;2024-01-27T08:13:49;23.37;;;10.00;;
75823;SDS011;64457;51.976;9.834;2024-01-27T08:16:17;25.50;;;12.43;;
75823;SDS011;64457;51.976;9.834;2024-01-27T08:18:45;29.90;;;12.30;;
75823;SDS011;64457;51.976;9.834;2024-01-27T08:21:12;30.63;;;12.67;;
75823;SDS011;64457;51.976;9.834;2024-01-27T08:23:41;25.40;;;13.10;;
75823;SDS011;64457;51.976;9.834;2024-01-27T08:26:09;56.97;;;14.40;;
75823;SDS011;64457;51.976;9.834;2024-01-27T08:28:37;27.40;;;13.63;;
75823;SDS011;64457;51.976;9.834;2024-01-27T08:31:04;29.87;;;13.03;;
75823;SDS011;64457;51.976;9.834;2024-01-27T08:33:31;32.40;;;13.10;;
75823;SDS011;64457;51.976;9.834;2024-01-27T08:35:59;32.63;;;14.80;;
75823;SDS011;64457;51.976;9.834;2024-01-27T08:38:30;39.27;;;14.83;;
75823;SDS011;64457;51.976;9.834;2024-01-27T08:40:58;27.33;;;13.00;;
75823;SDS011;64457;51.976;9.834;2024-01-27T08:43:26;25.97;;;13.70;;
75823;SDS011;64457;51.976;9.834;2024-01-27T08:45:53;34.83;;;13.83;;
75823;SDS011;64457;51.976;9.834;2024-01-27T08:48:22;30.20;;;12.67;;
75823;SDS011;64457;51.976;9.834;2024-01-27T08:50:49;32.07;;;14.03;;
75823;SDS011;64457;51.976;9.834;2024-01-27T08:53:16;24.63;;;13.10;;
75823;SDS011;64457;51.976;9.834;2024-01-27T08:55:44;33.87;;;14.47;;
75823;SDS011;64457;51.976;9.834;2024-01-27T08:58:12;36.03;;;14.97;;
75823;SDS011;64457;51.976;9.834;2024-01-27T09:00:40;30.83;;;14.23;;
75823;SDS011;64457;51.976;9.834;2024-01-27T09:03:08;28.67;;;14.77;;
75823;SDS011;64457;51.976;9.834;2024-01-27T09:05:35;24.93;;;14.43;;
75823;SDS011;64457;51.976;9.834;2024-01-27T09:08:02;40.40;;;14.90;;
75823;SDS011;64457;51.976;9.834;2024-01-27T09:10:32;35.17;;;14.93;;
75823;SDS011;64457;51.976;9.834;2024-01-27T09:12:59;33.73;;;15.13;;
75823;SDS011;64457;51.976;9.834;2024-01-27T09:15:29;30.73;;;13.23;;
75823;SDS011;64457;51.976;9.834;2024-01-27T09:17:56;38.20;;;13.30;;
75823;SDS011;64457;51.976;9.834;2024-01-27T09:20:26;25.13;;;12.77;;
75823;SDS011;64457;51.976;9.834;2024-01-27T09:22:54;35.07;;;14.03;;
75823;SDS011;64457;51.976;9.834;2024-01-27T09:25:24;27.53;;;12.80;;
75823;SDS011;64457;51.976;9.834;2024-01-27T09:27:53;31.83;;;12.63;;
75823;SDS011;64457;51.976;9.834;2024-01-27T09:30:20;25.30;;;12.20;;
75823;SDS011;64457;51.976;9.834;2024-01-27T09:32:49;32.17;;;12.53;;
75823;SDS011;64457;51.976;9.834;2024-01-27T09:35:16;26.70;;;13.57;;
75823;SDS011;64457;51.976;9.834;2024-01-27T09:37:45;35.83;;;12.30;;
75823;SDS011;64457;51.976;9.834;2024-01-27T09:40:13;23.30;;;11.33;;
75823;SDS011;64457;51.976;9.834;2024-01-27T09:42:41;26.50;;;10.80;;
75823;SDS011;64457;51.976;9.834;2024-01-27T09:45:17;25.90;;;12.90;;
75823;SDS011;64457;51.976;9.834;2024-01-27T09:47:46;34.20;;;12.77;;
75823;SDS011;64457;51.976;9.834;2024-01-27T09:50:16;26.37;;;12.27;;
75823;SDS011;64457;51.976;9.834;2024-01-27T09:52:47;32.43;;;12.10;;
75823;SDS011;64457;51.976;9.834;2024-01-27T09:55:18;21.23;;;11.33;;
75823;SDS011;64457;51.976;9.834;2024-01-27T09:57:45;23.40;;;11.53;;
75823;SDS011;64457;51.976;9.834;2024-01-27T10:00:14;26.80;;;12.03;;
75823;SDS011;64457;51.976;9.834;2024-01-27T10:02:42;22.60;;;11.07;;
75823;SDS011;64457;51.976;9.834;2024-01-27T10:05:14;34.00;;;11.47;;
75823;SDS011;64457;51.976;9.834;2024-01-27T10:07:42;29.23;;;10.30;;
75823;SDS011;64457;51.976;9.834;2024-01-27T10:10:09;24.00;;;10.47;;
75823;SDS011;64457;51.976;9.834;2024-01-27T10:12:38;26.30;;;9.50;;
75823;SDS011;64457;51.976;9.834;2024-01-27T10:15:18;29.30;;;10.03;;
75823;SDS011;64457;51.976;9.834;2024-01-27T10:17:49;29.30;;;9.37;;
75823;SDS011;64457;51.976;9.834;2024-01-27T10:20:18;21.23;;;8.67;;
75823;SDS011;64457;51.976;9.834;2024-01-27T10:22:45;19.73;;;8.43;;
75823;SDS011;64457;51.976;9.834;2024-01-27T10:25:14;24.33;;;8.23;;
75823;SDS011;64457;51.976;9.834;2024-01-27T10:27:42;25.33;;;8.00;;
75823;SDS011;64457;51.976;9.834;2024-01-27T10:30:14;17.80;;;8.17;;
75823;SDS011;64457;51.976;9.834;2024-01-27T10:32:53;20.30;;;8.33;;
75823;SDS011;64457;51.976;9.834;2024-01-27T10:35:23;18.30;;;7.10;;
75823;SDS011;64457;51.976;9.834;2024-01-27T10:37:51;17.87;;;6.63;;
75823;SDS011;64457;51.976;9.834;2024-01-27T10:40:20;17.77;;;7.10;;
75823;SDS011;64457;51.976;9.834;2024-01-27T10:42:51;19.37;;;8.50;;
75823;SDS011;64457;51.976;9.834;2024-01-27T10:45:29;14.07;;;6.57;;
75823;SDS011;64457;51.976;9.834;2024-01-27T10:48:03;21.70;;;6.63;;
75823;SDS011;64457;51.976;9.834;2024-01-27T10:50:35;23.80;;;7.23;;
75823;SDS011;64457;51.976;9.834;2024-01-27T10:53:05;16.73;;;6.13;;
75823;SDS011;64457;51.976;9.834;2024-01-27T10:55:43;14.23;;;5.40;;
75823;SDS011;64457;51.976;9.834;2024-01-27T10:58:13;17.97;;;5.97;;
75823;SDS011;64457;51.976;9.834;2024-01-27T11:00:42;14.47;;;5.30;;
75823;SDS011;64457;51.976;9.834;2024-01-27T11:03:12;20.63;;;5.93;;
75823;SDS011;64457;51.976;9.834;2024-01-27T11:05:51;12.93;;;5.50;;
75823;SDS011;64457;51.976;9.834;2024-01-27T11:08:20;16.17;;;5.00;;
75823;SDS011;64457;51.976;9.834;2024-01-27T11:10:53;19.13;;;5.17;;
75823;SDS011;64457;51.976;9.834;2024-01-27T11:13:20;16.63;;;5.30;;
75823;SDS011;64457;51.976;9.834;2024-01-27T11:15:52;19.47;;;5.90;;
75823;SDS011;64457;51.976;9.834;2024-01-27T11:18:20;18.50;;;5.23;;
75823;SDS011;64457;51.976;9.834;2024-01-27T11:20:48;19.13;;;5.27;;
75823;SDS011;64457;51.976;9.834;2024-01-27T11:23:30;16.17;;;4.77;;
75823;SDS011;64457;51.976;9.834;2024-01-27T11:26:02;22.50;;;5.23;;
75823;SDS011;64457;51.976;9.834;2024-01-27T11:28:31;10.07;;;4.93;;
75823;SDS011;64457;51.976;9.834;2024-01-27T11:31:03;18.50;;;4.97;;
75823;SDS011;64457;51.976;9.834;2024-01-27T11:33:31;13.67;;;5.73;;
75823;SDS011;64457;51.976;9.834;2024-01-27T11:36:04;16.47;;;5.23;;
75823;SDS011;64457;51.976;9.834;2024-01-27T11:38:34;15.27;;;4.63;;
75823;SDS011;64457;51.976;9.834;2024-01-27T11:41:03;14.30;;;4.03;;
75823;SDS011;64457;51.976;9.834;2024-01-27T11:43:30;11.00;;;4.37;;
75823;SDS011;64457;51.976;9.834;2024-01-27T11:45:59;17.23;;;4.50;;
75823;SDS011;64457;51.976;9.834;2024-01-27T11:48:27;16.83;;;4.67;;
75823;SDS011;64457;51.976;9.834;2024-01-27T11:51:06;19.50;;;5.00;;
75823;SDS011;64457;51.976;9.834;2024-01-27T11:53:37;11.77;;;4.30;;
75823;SDS011;64457;51.976;9.834;2024-01-27T11:56:05;14.53;;;4.50;;
75823;SDS011;64457;51.976;9.834;2024-01-27T11:58:33;24.40;;;5.40;;
75823;SDS011;64457;51.976;9.834;2024-01-27T12:01:00;12.97;;;4.17;;
75823;SDS011;64457;51.976;9.834;2024-01-27T12:03:28;10.80;;;3.40;;
75823;SDS011;64457;51.976;9.834;2024-01-27T12:05:56;12.13;;;5.10;;
75823;SDS011;64457;51.976;9.834;2024-01-27T12:08:25;9.43;;;3.60;;
75823;SDS011;64457;51.976;9.834;2024-01-27T12:10:53;14.87;;;4.77;;
75823;SDS011;64457;51.976;9.834;2024-01-27T12:13:20;12.43;;;3.77;;
75823;SDS011;64457;51.976;9.834;2024-01-27T12:15:48;15.53;;;4.60;;
75823;SDS011;64457;51.976;9.834;2024-01-27T12:18:16;12.43;;;4.37;;
75823;SDS011;64457;51.976;9.834;2024-01-27T12:20:44;22.63;;;5.13;;
75823;SDS011;64457;51.976;9.834;2024-01-27T12:23:13;12.60;;;4.30;;
75823;SDS011;64457;51.976;9.834;2024-01-27T12:25:42;14.33;;;4.00;;
75823;SDS011;64457;51.976;9.834;2024-01-27T12:28:19;12.20;;;3.90;;
75823;SDS011;64457;51.976;9.834;2024-01-27T12:30:46;11.70;;;3.60;;
75823;SDS011;64457;51.976;9.834;2024-01-27T12:33:14;13.70;;;4.17;;
75823;SDS011;64457;51.976;9.834;2024-01-27T12:35:44;21.70;;;4.67;;
75823;SDS011;64457;51.976;9.834;2024-01-27T12:38:12;16.00;;;4.20;;
75823;SDS011;64457;51.976;9.834;2024-01-27T12:40:45;9.23;;;2.80;;
75823;SDS011;64457;51.976;9.834;2024-01-27T12:43:12;10.10;;;2.90;;
75823;SDS011;64457;51.976;9.834;2024-01-27T12:45:40;11.00;;;3.40;;
75823;SDS011;64457;51.976;9.834;2024-01-27T12:48:08;10.63;;;3.10;;
75823;SDS011;64457;51.976;9.834;2024-01-27T12:50:35;7.43;;;2.70;;
75823;SDS011;64457;51.976;9.834;2024-01-27T12:53:03;9.23;;;3.00;;
75823;SDS011;64457;51.976;9.834;2024-01-27T12:55:31;9.70;;;2.53;;
75823;SDS011;64457;51.976;9.834;2024-01-27T12:57:59;12.60;;;3.07;;
75823;SDS011;64457;51.976;9.834;2024-01-27T13:00:28;10.07;;;3.00;;
75823;SDS011;64457;51.976;9.834;2024-01-27T13:02:55;7.33;;;2.70;;
75823;SDS011;64457;51.976;9.834;2024-01-27T13:05:29;10.87;;;3.57;;
75823;SDS011;64457;51.976;9.834;2024-01-27T13:07:59;15.03;;;3.17;;
75823;SDS011;64457;51.976;9.834;2024-01-27T13:10:27;15.67;;;3.23;;
75823;SDS011;64457;51.976;9.834;2024-01-27T13:12:54;9.90;;;3.03;;
75823;SDS011;64457;51.976;9.834;2024-01-27T13:15:24;16.13;;;3.60;;
75823;SDS011;64457;51.976;9.834;2024-01-27T13:17:52;10.40;;;2.83;;
75823;SDS011;64457;51.976;9.834;2024-01-27T13:20:19;16.83;;;3.57;;
75823;SDS011;64457;51.976;9.834;2024-01-27T13:22:47;7.80;;;2.70;;
75823;SDS011;64457;51.976;9.834;2024-01-27T13:25:14;9.83;;;2.80;;
75823;SDS011;64457;51.976;9.834;2024-01-27T13:27:42;11.83;;;2.67;;
75823;SDS011;64457;51.976;9.834;2024-01-27T13:30:10;15.50;;;3.43;;
75823;SDS011;64457;51.976;9.834;2024-01-27T13:32:39;12.40;;;2.87;;
75823;SDS011;64457;51.976;9.834;2024-01-27T13:35:07;8.40;;;3.10;;
75823;SDS011;64457;51.976;9.834;2024-01-27T13:37:34;12.47;;;2.93;;
75823;SDS011;64457;51.976;9.834;2024-01-27T13:40:05;13.37;;;2.57;;
75823;SDS011;64457;51.976;9.834;2024-01-27T13:42:35;17.80;;;3.10;;
75823;SDS011;64457;51.976;9.834;2024-01-27T13:45:03;13.67;;;2.90;;
75823;SDS011;64457;51.976;9.834;2024-01-27T13:47:31;11.07;;;2.73;;
75823;SDS011;64457;51.976;9.834;2024-01-27T13:50:00;17.33;;;2.27;;
75823;SDS011;64457;51.976;9.834;2024-01-27T13:52:31;15.43;;;3.40;;
75823;SDS011;64457;51.976;9.834;2024-01-27T13:55:07;8.30;;;2.83;;
75823;SDS011;64457;51.976;9.834;2024-01-27T13:57:36;8.80;;;2.37;;
75823;SDS011;64457;51.976;9.834;2024-01-27T14:00:06;21.33;;;2.93;;
75823;SDS011;64457;51.976;9.834;2024-01-27T14:02:35;6.03;;;2.50;;
75823;SDS011;64457;51.976;9.834;2024-01-27T14:05:04;10.90;;;2.73;;
75823;SDS011;64457;51.976;9.834;2024-01-27T14:07:32;11.60;;;3.23;;
75823;SDS011;64457;51.976;9.834;2024-01-27T14:10:00;8.37;;;2.57;;
75823;SDS011;64457;51.976;9.834;2024-01-27T14:12:27;8.33;;;2.00;;
75823;SDS011;64457;51.976;9.834;2024-01-27T14:15:01;6.77;;;1.90;;
75823;SDS011;64457;51.976;9.834;2024-01-27T14:17:32;14.50;;;3.40;;
75823;SDS011;64457;51.976;9.834;2024-01-27T14:20:01;17.10;;;3.03;;
75823;SDS011;64457;51.976;9.834;2024-01-27T14:22:30;7.67;;;2.40;;
75823;SDS011;64457;51.976;9.834;2024-01-27T14:24:59;20.33;;;2.70;;
75823;SDS011;64457;51.976;9.834;2024-01-27T14:27:27;11.10;;;2.10;;
75823;SDS011;64457;51.976;9.834;2024-01-27T14:29:54;10.53;;;2.50;;
75823;SDS011;64457;51.976;9.834;2024-01-27T14:32:22;12.13;;;2.70;;
75823;SDS011;64457;51.976;9.834;2024-01-27T14:34:50;17.53;;;2.40;;
75823;SDS011;64457;51.976;9.834;2024-01-27T14:37:17;10.03;;;3.50;;
75823;SDS011;64457;51.976;9.834;2024-01-27T14:39:46;17.30;;;4.27;;
75823;SDS011;64457;51.976;9.834;2024-01-27T14:42:16;10.73;;;3.90;;